createdAt,value
2017-08-16T00:02:07.217Z,11.43
2017-08-16T00:04:36.416Z,11.60
2017-08-16T00:07:04.845Z,23.90
2017-08-16T00:09:33.392Z,22.80
2017-08-16T00:12:01.809Z,22.97
2017-08-16T00:14:30.274Z,19.33
2017-08-16T00:16:58.742Z,19.80
2017-08-16T00:19:27.157Z,15.00
2017-08-16T00:21:55.615Z,14.23
2017-08-16T00:24:24.029Z,13.57
2017-08-16T00:26:52.465Z,12.80
2017-08-16T00:29:20.910Z,11.70
2017-08-16T00:31:49.330Z,11.47
2017-08-16T00:34:17.754Z,11.03
2017-08-16T00:36:46.367Z,9.83
2017-08-16T00:39:14.781Z,9.60
2017-08-16T00:41:43.199Z,10.10
2017-08-16T00:44:11.650Z,10.40
2017-08-16T00:46:39.709Z,11.53
2017-08-16T00:49:07.774Z,11.77
2017-08-16T00:51:36.216Z,11.97
2017-08-16T00:54:05.401Z,11.30
2017-08-16T00:56:33.890Z,11.30
2017-08-16T00:59:03.094Z,12.00
2017-08-16T01:01:31.590Z,12.53
2017-08-16T01:04:00.009Z,13.07
2017-08-16T01:06:29.192Z,14.07
2017-08-16T01:08:57.624Z,14.07
2017-08-16T01:11:26.460Z,13.90
2017-08-16T01:13:54.899Z,14.37
2017-08-16T01:16:23.349Z,16.43
2017-08-16T01:18:52.545Z,15.70
2017-08-16T01:21:21.677Z,15.13
2017-08-16T01:23:50.322Z,16.00
2017-08-16T01:26:18.752Z,16.60
2017-08-16T01:28:47.200Z,16.73
2017-08-16T01:31:17.100Z,17.03
2017-08-16T01:33:46.512Z,17.30
2017-08-16T01:36:15.727Z,17.67
2017-08-16T01:38:44.337Z,18.20
2017-08-16T01:41:13.585Z,17.57
2017-08-16T01:43:42.089Z,17.70
2017-08-16T01:46:11.473Z,19.30
2017-08-16T01:48:40.687Z,17.07
2017-08-16T01:51:10.789Z,19.13
2017-08-16T01:53:40.013Z,19.00
2017-08-16T01:56:08.433Z,19.53
2017-08-16T01:58:36.552Z,20.13
2017-08-16T02:01:05.796Z,18.40
2017-08-16T02:03:34.218Z,19.77
2017-08-16T02:06:03.415Z,20.00
2017-08-16T02:08:32.638Z,22.13
2017-08-16T02:11:02.513Z,22.27
2017-08-16T02:13:30.945Z,22.30
2017-08-16T02:15:59.733Z,24.23
2017-08-16T02:18:28.973Z,22.70
2017-08-16T02:20:57.464Z,26.10
2017-08-16T02:23:26.716Z,25.30
2017-08-16T02:25:55.164Z,26.40
2017-08-16T02:28:23.602Z,24.80
2017-08-16T02:30:52.053Z,25.20
2017-08-16T02:33:20.489Z,26.97
2017-08-16T02:35:49.693Z,27.40
2017-08-16T02:38:18.909Z,26.30
2017-08-16T02:40:47.388Z,27.80
2017-08-16T02:43:16.078Z,26.73
2017-08-16T02:45:44.606Z,27.50
2017-08-16T02:48:13.028Z,27.63
2017-08-16T02:50:41.465Z,26.47
2017-08-16T02:53:09.637Z,28.00
2017-08-16T02:55:37.369Z,29.97
2017-08-16T02:58:06.049Z,32.87
2017-08-16T03:00:34.141Z,29.33
2017-08-16T03:03:01.865Z,29.63
2017-08-16T03:05:30.017Z,30.03
2017-08-16T03:07:59.445Z,32.53
2017-08-16T03:10:27.525Z,32.23
2017-08-16T03:12:55.952Z,32.30
2017-08-16T03:15:24.116Z,34.03
2017-08-16T03:17:51.922Z,33.27
2017-08-16T03:20:21.288Z,33.77
2017-08-16T03:22:49.745Z,33.93
2017-08-16T03:25:18.081Z,35.73
2017-08-16T03:27:46.506Z,36.57
2017-08-16T03:30:14.257Z,36.07
2017-08-16T03:32:42.352Z,37.17
2017-08-16T03:35:10.412Z,38.53
2017-08-16T03:37:38.523Z,37.37
2017-08-16T03:40:07.023Z,35.80
2017-08-16T03:42:35.089Z,36.50
2017-08-16T03:45:03.200Z,35.57
2017-08-16T03:47:31.594Z,35.33
2017-08-16T03:50:00.338Z,35.60
2017-08-16T03:52:28.447Z,36.67
2017-08-16T03:54:56.523Z,35.47
2017-08-16T03:57:24.269Z,35.90
2017-08-16T03:59:52.388Z,36.20
2017-08-16T04:02:20.492Z,35.23
2017-08-16T04:04:48.220Z,38.17
2017-08-16T04:07:15.988Z,36.37
2017-08-16T04:09:44.405Z,36.87
2017-08-16T04:12:12.484Z,38.67
2017-08-16T04:14:41.092Z,39.80
2017-08-16T04:17:09.172Z,38.80
2017-08-16T04:19:38.394Z,39.70
2017-08-16T04:22:08.585Z,42.50
2017-08-16T04:24:36.928Z,41.30
2017-08-16T04:27:05.092Z,43.13
2017-08-16T04:32:11.462Z,45.13
2017-08-16T04:34:39.884Z,46.30
2017-08-16T04:37:07.959Z,46.27
2017-08-16T04:39:35.680Z,46.80
2017-08-16T04:42:04.473Z,48.00
2017-08-16T04:44:32.540Z,46.57
2017-08-16T04:47:00.616Z,48.30
2017-08-16T04:49:28.729Z,46.10
2017-08-16T04:51:56.788Z,46.67
2017-08-16T04:54:24.877Z,48.40
2017-08-16T04:56:54.277Z,46.97
2017-08-16T04:59:23.428Z,46.57
2017-08-16T05:01:51.512Z,45.90
2017-08-16T05:04:20.012Z,41.20
2017-08-16T05:06:48.104Z,40.77
2017-08-16T05:09:16.939Z,42.20
2017-08-16T05:11:45.037Z,40.13
2017-08-16T05:14:13.612Z,40.77
2017-08-16T05:16:41.800Z,40.10
2017-08-16T05:19:10.777Z,43.10
2017-08-16T05:21:39.192Z,43.27
2017-08-16T05:24:06.942Z,39.67
2017-08-16T05:26:35.802Z,43.07
2017-08-16T05:29:05.513Z,41.33
2017-08-16T05:31:33.581Z,40.30
2017-08-16T05:34:01.657Z,40.03
2017-08-16T05:36:29.364Z,41.30
2017-08-16T05:38:57.432Z,39.00
2017-08-16T05:41:25.891Z,39.23
2017-08-16T05:43:54.761Z,40.17
2017-08-16T05:46:22.829Z,38.63
2017-08-16T05:48:51.272Z,39.63
2017-08-16T05:51:19.560Z,36.80
2017-08-16T05:53:47.777Z,37.40
2017-08-16T05:56:16.980Z,37.50
2017-08-16T05:58:46.178Z,37.87
2017-08-16T06:01:14.597Z,37.07
2017-08-16T06:03:43.093Z,37.03
2017-08-16T06:06:12.368Z,36.83
2017-08-16T06:08:40.785Z,37.50
2017-08-16T06:11:09.411Z,38.63
2017-08-16T06:13:37.858Z,38.23
2017-08-16T06:16:07.132Z,37.83
2017-08-16T06:18:36.351Z,36.60
2017-08-16T06:21:05.101Z,34.30
2017-08-16T06:23:33.525Z,37.07
2017-08-16T06:26:01.955Z,33.10
2017-08-16T06:28:31.006Z,30.60
2017-08-16T06:31:01.391Z,31.70
2017-08-16T06:33:29.948Z,31.03
2017-08-16T06:35:58.411Z,30.10
2017-08-16T06:38:27.592Z,29.77
2017-08-16T06:40:57.494Z,32.53
2017-08-16T06:43:25.931Z,30.87
2017-08-16T06:45:54.369Z,31.10
2017-08-16T06:48:23.585Z,32.57
2017-08-16T06:50:52.004Z,32.20
2017-08-16T06:53:20.437Z,32.70
2017-08-16T06:55:49.016Z,34.37
2017-08-16T06:58:18.387Z,55.63
2017-08-16T07:00:46.820Z,34.23
2017-08-16T07:03:15.527Z,32.10
2017-08-16T07:05:43.958Z,31.90
2017-08-16T07:08:13.168Z,31.83
2017-08-16T07:10:41.620Z,33.03
2017-08-16T07:13:10.821Z,32.37
2017-08-16T07:15:40.028Z,28.87
2017-08-16T07:18:09.263Z,30.13
2017-08-16T07:20:38.490Z,26.87
2017-08-16T07:23:07.003Z,30.60
2017-08-16T07:25:36.377Z,28.40
2017-08-16T07:28:04.793Z,29.23
2017-08-16T07:30:33.221Z,26.30
2017-08-16T07:33:01.869Z,28.53
2017-08-16T07:35:30.268Z,29.77
2017-08-16T07:37:58.700Z,26.90
2017-08-16T07:40:27.936Z,25.50
2017-08-16T07:42:58.030Z,26.27
2017-08-16T07:45:26.482Z,25.27
2017-08-16T07:47:55.697Z,28.07
2017-08-16T07:50:24.205Z,26.27
2017-08-16T07:52:52.050Z,25.67
2017-08-16T07:55:20.640Z,25.77
2017-08-16T07:57:49.057Z,24.93
2017-08-16T08:00:17.484Z,27.57
2017-08-16T08:02:46.696Z,28.10
2017-08-16T08:05:15.269Z,25.20
2017-08-16T08:07:43.693Z,26.37
2017-08-16T08:10:12.125Z,26.10
2017-08-16T08:12:40.197Z,27.07
2017-08-16T08:15:08.635Z,27.60
2017-08-16T08:17:37.116Z,24.90
2017-08-16T08:20:05.549Z,26.03
2017-08-16T08:22:34.653Z,26.30
2017-08-16T08:25:03.213Z,26.90
2017-08-16T08:27:32.225Z,26.20
2017-08-16T08:30:00.811Z,25.20
2017-08-16T08:32:29.489Z,23.03
2017-08-16T08:34:57.930Z,21.73
2017-08-16T08:37:27.142Z,25.57
2017-08-16T08:39:56.365Z,24.50
2017-08-16T08:42:24.786Z,22.93
2017-08-16T08:44:53.197Z,25.23
2017-08-16T08:47:21.663Z,24.70
2017-08-16T08:49:50.881Z,29.93
2017-08-16T08:52:19.318Z,27.10
2017-08-16T08:54:48.057Z,23.30
2017-08-16T08:57:16.526Z,23.07
2017-08-16T08:59:45.009Z,22.13
2017-08-16T09:02:13.586Z,25.33
2017-08-16T09:04:42.031Z,22.80
2017-08-16T09:07:10.503Z,39.83
2017-08-16T09:09:39.860Z,31.07
2017-08-16T09:12:09.090Z,25.63
2017-08-16T09:14:37.524Z,24.80
2017-08-16T09:17:06.107Z,26.07
2017-08-16T09:19:34.551Z,22.70
2017-08-16T09:22:02.975Z,22.20
2017-08-16T09:24:31.447Z,27.30
2017-08-16T09:27:00.689Z,22.23
2017-08-16T09:29:29.130Z,21.70
2017-08-16T09:31:57.479Z,20.63
2017-08-16T09:34:26.692Z,19.70
2017-08-16T09:36:55.181Z,48.60
2017-08-16T09:39:23.645Z,21.23
2017-08-16T09:41:52.065Z,30.03
2017-08-16T09:44:20.988Z,19.93
2017-08-16T09:46:49.509Z,19.80
2017-08-16T09:49:17.934Z,18.40
2017-08-16T09:51:46.452Z,17.40
2017-08-16T09:54:15.684Z,17.77
2017-08-16T09:56:44.112Z,19.47
2017-08-16T09:59:12.577Z,17.77
2017-08-16T10:01:40.698Z,18.60
2017-08-16T10:04:09.926Z,20.90
2017-08-16T10:06:38.349Z,18.00
2017-08-16T10:09:08.393Z,17.83
2017-08-16T10:11:37.357Z,17.90
2017-08-16T10:14:06.541Z,19.90
2017-08-16T10:16:34.650Z,16.90
2017-08-16T10:19:03.457Z,18.13
2017-08-16T10:21:32.758Z,18.20
2017-08-16T10:24:01.209Z,16.83
2017-08-16T10:26:29.608Z,23.33
2017-08-16T10:28:58.049Z,18.63
2017-08-16T10:31:26.505Z,17.73
2017-08-16T10:33:54.992Z,19.40
2017-08-16T10:36:23.435Z,18.20
2017-08-16T10:38:51.885Z,16.80
2017-08-16T10:41:21.017Z,18.10
2017-08-16T10:43:49.433Z,21.93
2017-08-16T10:46:17.893Z,20.73
2017-08-16T10:48:46.328Z,20.33
2017-08-16T10:51:15.442Z,16.10
2017-08-16T10:53:43.906Z,15.30
2017-08-16T10:56:12.331Z,16.80
2017-08-16T10:58:40.749Z,16.70
2017-08-16T11:01:09.193Z,14.83
2017-08-16T11:03:37.636Z,15.77
2017-08-16T11:06:06.093Z,14.63
2017-08-16T11:08:34.553Z,13.93
2017-08-16T11:11:03.668Z,15.83
2017-08-16T11:13:32.085Z,15.07
2017-08-16T11:16:00.522Z,13.23
2017-08-16T11:18:28.951Z,14.13
2017-08-16T11:20:57.425Z,13.90
2017-08-16T11:23:27.026Z,14.77
2017-08-16T11:25:55.486Z,14.00
2017-08-16T11:28:23.902Z,15.00
2017-08-16T11:30:52.370Z,13.17
2017-08-16T11:33:20.793Z,19.10
2017-08-16T11:35:49.251Z,12.60
2017-08-16T11:38:17.717Z,17.40
2017-08-16T11:40:46.141Z,15.33
2017-08-16T11:43:15.544Z,12.50
2017-08-16T11:45:44.022Z,12.60
2017-08-16T11:48:13.237Z,13.50
2017-08-16T11:50:41.670Z,12.87
2017-08-16T11:53:10.926Z,14.00
2017-08-16T11:55:39.361Z,13.77
2017-08-16T11:58:07.871Z,12.33
2017-08-16T12:00:36.441Z,13.80
2017-08-16T12:03:05.690Z,12.50
2017-08-16T12:05:34.134Z,12.70
2017-08-16T12:08:02.583Z,13.10
2017-08-16T12:10:31.058Z,13.70
2017-08-16T12:12:59.490Z,13.20
2017-08-16T12:15:27.953Z,12.13
2017-08-16T12:17:56.373Z,11.70
2017-08-16T12:20:24.792Z,11.57
2017-08-16T12:22:53.405Z,11.77
2017-08-16T12:25:25.478Z,12.30
2017-08-16T12:27:58.375Z,11.13
2017-08-16T12:30:27.607Z,11.63
2017-08-16T12:32:56.076Z,13.07
2017-08-16T12:35:24.371Z,10.73
2017-08-16T12:37:57.623Z,10.70
2017-08-16T12:40:27.452Z,10.37
2017-08-16T12:42:58.709Z,10.90
2017-08-16T12:45:30.211Z,10.00
2017-08-16T12:47:59.930Z,10.20
2017-08-16T12:50:32.284Z,10.10
2017-08-16T12:53:02.627Z,10.37
2017-08-16T12:55:32.925Z,9.10
2017-08-16T12:58:03.473Z,10.80
2017-08-16T13:00:32.128Z,8.83
2017-08-16T13:03:03.061Z,8.67
2017-08-16T13:05:36.005Z,8.93
2017-08-16T13:08:07.469Z,8.77
2017-08-16T13:10:38.482Z,11.30
2017-08-16T13:13:07.058Z,9.67
2017-08-16T13:15:36.850Z,8.30
2017-08-16T13:18:05.954Z,10.37
2017-08-16T13:20:35.661Z,12.00
2017-08-16T13:23:05.156Z,11.43
2017-08-16T13:25:34.931Z,10.43
2017-08-16T13:28:04.575Z,7.40
2017-08-16T13:30:33.651Z,8.37
2017-08-16T13:33:06.665Z,7.50
2017-08-16T13:35:36.965Z,9.17
2017-08-16T13:38:07.967Z,8.37
2017-08-16T13:40:38.361Z,9.97
2017-08-16T13:43:14.514Z,9.87
2017-08-16T13:45:45.049Z,10.17
2017-08-16T13:48:16.730Z,12.60
2017-08-16T13:50:45.153Z,6.07
2017-08-16T13:53:13.565Z,7.00
2017-08-16T13:55:41.981Z,6.90
2017-08-16T13:58:10.420Z,6.70
2017-08-16T14:00:38.836Z,9.63
2017-08-16T14:03:07.302Z,12.60
2017-08-16T14:05:35.766Z,7.67
2017-08-16T14:08:04.221Z,12.20
2017-08-16T14:10:32.661Z,8.47
2017-08-16T14:13:01.114Z,6.40
2017-08-16T14:15:29.529Z,8.10
2017-08-16T14:17:58.700Z,8.00
2017-08-16T14:20:27.944Z,6.23
2017-08-16T14:22:56.361Z,6.20
2017-08-16T14:25:24.797Z,8.40
2017-08-16T14:27:53.234Z,7.30
2017-08-16T14:30:22.355Z,8.23
2017-08-16T14:32:50.764Z,7.97
2017-08-16T14:35:19.220Z,8.30
2017-08-16T14:37:47.648Z,7.70
2017-08-16T14:40:16.084Z,8.37
2017-08-16T14:42:44.517Z,7.07
2017-08-16T14:45:12.927Z,7.27
2017-08-16T14:47:41.160Z,12.47
2017-08-16T14:50:09.406Z,8.20
2017-08-16T14:52:37.838Z,7.97
2017-08-16T14:55:07.084Z,7.90
2017-08-16T14:57:35.523Z,13.10
2017-08-16T15:00:03.945Z,10.07
2017-08-16T15:02:32.354Z,8.90
2017-08-16T15:05:00.803Z,9.07
2017-08-16T15:07:29.233Z,14.20
2017-08-16T15:09:58.454Z,13.40
2017-08-16T15:12:26.898Z,16.83
2017-08-16T15:14:55.332Z,12.43
2017-08-16T15:17:23.775Z,10.40
2017-08-16T15:19:52.989Z,30.87
2017-08-16T15:22:21.405Z,18.70
2017-08-16T15:24:50.510Z,10.90
2017-08-16T15:27:18.955Z,13.10
2017-08-16T15:29:47.377Z,13.33
2017-08-16T15:32:15.816Z,11.83
2017-08-16T15:34:44.255Z,14.07
2017-08-16T15:37:13.450Z,12.33
2017-08-16T15:39:42.637Z,14.37
2017-08-16T15:42:11.113Z,11.23
2017-08-16T15:44:39.529Z,8.87
2017-08-16T15:47:07.965Z,10.00
2017-08-16T15:49:36.422Z,19.60
2017-08-16T15:52:04.846Z,19.90
2017-08-16T15:54:34.036Z,13.07
2017-08-16T15:57:03.253Z,15.13
2017-08-16T15:59:32.441Z,16.77
2017-08-16T16:02:00.881Z,17.53
2017-08-16T16:04:29.326Z,12.23
2017-08-16T16:06:57.752Z,11.33
2017-08-16T16:09:26.178Z,16.10
2017-08-16T16:11:54.632Z,17.93
2017-08-16T16:14:23.841Z,27.67
2017-08-16T16:16:52.265Z,12.83
2017-08-16T16:19:20.527Z,13.90
2017-08-16T16:21:49.005Z,12.00
2017-08-16T16:24:17.440Z,13.47
2017-08-16T16:26:45.882Z,14.10
2017-08-16T16:29:14.294Z,13.57
2017-08-16T16:31:42.719Z,12.63
2017-08-16T16:34:11.172Z,11.30
2017-08-16T16:36:39.585Z,12.10
2017-08-16T16:39:08.019Z,9.40
2017-08-16T16:41:36.440Z,28.67
2017-08-16T16:44:04.860Z,42.70
2017-08-16T16:46:33.298Z,18.40
2017-08-16T16:49:01.750Z,15.93
2017-08-16T16:51:30.189Z,23.77
2017-08-16T16:53:58.617Z,14.53
2017-08-16T16:56:27.088Z,12.33
2017-08-16T16:58:56.132Z,11.77
2017-08-16T17:01:24.548Z,12.73
2017-08-16T17:03:53.004Z,12.00
2017-08-16T17:06:21.441Z,25.03
2017-08-16T17:08:49.881Z,17.30
2017-08-16T17:11:19.081Z,12.57
2017-08-16T17:13:48.257Z,13.70
2017-08-16T17:16:16.672Z,12.77
2017-08-16T17:18:45.136Z,11.47
2017-08-16T17:21:14.333Z,10.10
2017-08-16T17:23:43.519Z,11.70
2017-08-16T17:26:11.978Z,10.97
2017-08-16T17:28:40.400Z,11.20
2017-08-16T17:31:08.639Z,10.93
2017-08-16T17:33:37.139Z,10.17
2017-08-16T17:36:06.372Z,12.97
2017-08-16T17:38:34.849Z,25.90
2017-08-16T17:41:03.513Z,13.60
2017-08-16T17:43:32.728Z,10.53
2017-08-16T17:46:01.175Z,10.90
2017-08-16T17:48:30.352Z,12.03
2017-08-16T17:50:58.769Z,12.67
2017-08-16T17:53:27.201Z,10.90
2017-08-16T17:55:55.681Z,10.03
2017-08-16T17:58:24.104Z,11.80
2017-08-16T18:00:52.561Z,10.50
2017-08-16T18:03:21.694Z,10.13
2017-08-16T18:05:50.148Z,11.30
2017-08-16T18:08:19.333Z,10.30
2017-08-16T18:10:47.773Z,9.73
2017-08-16T18:13:16.221Z,9.87
2017-08-16T18:15:44.657Z,20.50
2017-08-16T18:18:13.068Z,13.33
2017-08-16T18:20:42.264Z,11.77
2017-08-16T18:23:11.489Z,14.30
2017-08-16T18:25:40.081Z,11.23
2017-08-16T18:28:08.508Z,11.50
2017-08-16T18:30:37.702Z,10.17
2017-08-16T18:33:06.156Z,9.50
2017-08-16T18:35:34.587Z,10.23
2017-08-16T18:38:03.005Z,9.53
2017-08-16T18:40:31.588Z,9.40
2017-08-16T18:43:00.044Z,9.33
2017-08-16T18:45:28.473Z,10.90
2017-08-16T18:47:56.972Z,10.77
2017-08-16T18:50:26.189Z,9.97
2017-08-16T18:52:54.650Z,11.27
2017-08-16T18:55:23.863Z,9.70
2017-08-16T18:57:52.291Z,9.70
2017-08-16T19:00:20.711Z,9.60
2017-08-16T19:02:49.878Z,11.00
2017-08-16T19:05:18.310Z,13.10
2017-08-16T19:07:46.760Z,11.00
2017-08-16T19:10:15.965Z,9.40
2017-08-16T19:12:45.157Z,15.17
2017-08-16T19:15:14.161Z,19.70
2017-08-16T19:17:42.622Z,12.47
2017-08-16T19:20:11.816Z,10.53
2017-08-16T19:22:41.032Z,10.70
2017-08-16T19:25:10.234Z,10.33
2017-08-16T19:27:38.684Z,10.37
2017-08-16T19:30:07.089Z,9.90
2017-08-16T19:32:35.536Z,10.40
2017-08-16T19:35:03.981Z,10.80
2017-08-16T19:37:32.419Z,10.43
2017-08-16T19:40:01.627Z,10.60
2017-08-16T19:42:30.067Z,13.03
2017-08-16T19:44:58.493Z,15.00
2017-08-16T19:47:26.954Z,11.77
2017-08-16T19:49:55.373Z,10.70
2017-08-16T19:52:23.796Z,10.40
2017-08-16T19:54:53.029Z,14.80
2017-08-16T19:57:21.464Z,14.90
2017-08-16T19:59:49.882Z,13.03
2017-08-16T20:02:18.320Z,10.97
2017-08-16T20:04:46.741Z,12.00
2017-08-16T20:07:15.158Z,10.53
2017-08-16T20:09:43.592Z,12.30
2017-08-16T20:12:12.026Z,12.10
2017-08-16T20:14:40.453Z,12.13
2017-08-16T20:17:08.920Z,12.40
2017-08-16T20:19:38.130Z,12.03
2017-08-16T20:22:06.525Z,12.90
2017-08-16T20:24:34.985Z,11.63
2017-08-16T20:27:03.422Z,12.67
2017-08-16T20:29:31.866Z,12.10
2017-08-16T20:32:01.777Z,12.73
2017-08-16T20:34:30.200Z,12.10
2017-08-16T20:36:58.618Z,12.37
2017-08-16T20:39:27.080Z,11.83
2017-08-16T20:41:56.231Z,11.90
2017-08-16T20:44:24.718Z,12.23
2017-08-16T20:46:53.146Z,12.67
2017-08-16T20:49:21.573Z,12.00
2017-08-16T20:51:50.001Z,12.90
2017-08-16T20:54:18.456Z,13.27
2017-08-16T20:56:46.882Z,12.90
2017-08-16T20:59:15.275Z,12.77
2017-08-16T21:01:43.730Z,12.37
2017-08-16T21:04:12.165Z,12.73
2017-08-16T21:06:40.589Z,11.80
2017-08-16T21:09:09.038Z,12.07
2017-08-16T21:11:38.136Z,11.73
2017-08-16T21:14:07.332Z,11.83
2017-08-16T21:16:36.544Z,11.47
2017-08-16T21:19:04.962Z,12.00
2017-08-16T21:21:33.390Z,12.43
2017-08-16T21:24:02.622Z,11.77
2017-08-16T21:26:31.043Z,11.10
2017-08-16T21:28:59.481Z,11.90
2017-08-16T21:31:27.935Z,12.33
2017-08-16T21:33:57.120Z,11.27
2017-08-16T21:36:26.312Z,11.83
2017-08-16T21:38:55.524Z,11.27
2017-08-16T21:41:24.719Z,12.40
2017-08-16T21:43:53.906Z,11.93
2017-08-16T21:46:22.345Z,12.10
2017-08-16T21:48:50.757Z,12.63
2017-08-16T21:51:19.949Z,12.13
2017-08-16T21:53:48.432Z,11.40
2017-08-16T21:56:16.845Z,12.43
2017-08-16T21:58:46.780Z,13.33
2017-08-16T22:01:15.261Z,12.90
2017-08-16T22:03:45.173Z,11.93
2017-08-16T22:06:13.585Z,13.07
2017-08-16T22:08:42.074Z,11.67
2017-08-16T22:11:10.563Z,13.40
2017-08-16T22:13:39.068Z,13.57
2017-08-16T22:16:07.593Z,12.53
2017-08-16T22:18:36.012Z,13.80
2017-08-16T22:21:05.270Z,12.90
2017-08-16T22:23:33.704Z,13.53
2017-08-16T22:26:02.177Z,13.27
2017-08-16T22:28:31.512Z,13.30
2017-08-16T22:30:59.961Z,13.70
2017-08-16T22:33:28.385Z,14.10
2017-08-16T22:35:56.848Z,14.10
2017-08-16T22:38:25.434Z,14.50
2017-08-16T22:40:54.054Z,14.67
2017-08-16T22:43:22.491Z,14.20
2017-08-16T22:45:50.955Z,14.00
2017-08-16T22:48:19.455Z,14.57
2017-08-16T22:50:48.073Z,14.03
2017-08-16T22:53:16.591Z,14.73
2017-08-16T22:55:45.859Z,13.80
2017-08-16T22:58:14.284Z,13.80
2017-08-16T23:00:42.767Z,14.03
2017-08-16T23:03:11.362Z,14.00
2017-08-16T23:05:39.905Z,13.20
2017-08-16T23:08:09.105Z,14.33
2017-08-16T23:10:37.550Z,14.37
2017-08-16T23:13:06.104Z,13.60
2017-08-16T23:15:34.574Z,13.40
2017-08-16T23:18:03.012Z,18.17
2017-08-16T23:20:32.202Z,13.47
2017-08-16T23:23:00.778Z,14.53
2017-08-16T23:25:29.218Z,13.07
2017-08-16T23:27:57.633Z,12.80
2017-08-16T23:30:26.174Z,13.73
2017-08-16T23:32:54.709Z,13.80
2017-08-16T23:35:23.897Z,13.73
2017-08-16T23:37:52.349Z,12.83
2017-08-16T23:40:21.020Z,13.80
2017-08-16T23:42:49.608Z,13.50
2017-08-16T23:45:21.394Z,12.03
2017-08-16T23:47:49.809Z,11.70
2017-08-16T23:50:18.233Z,12.63
2017-08-16T23:52:46.666Z,11.57
2017-08-16T23:55:15.097Z,12.20
2017-08-16T23:57:43.516Z,12.73
